Terminal Aerodrome Forecast
Issued by NWS

Current Version | Previous Version | Text Only | Print | Product List | Glossary On
Versions: 1 2 3 4 5 6 7 8 9 10 11 12 13 14 15
000
FTAK31 PAJN 302320
TAFASI
TAF
PASI 302320Z 3100/3124 10009KT 6SM -SHRA BR SCT012 BKN025 OVC040
     FM310200 24011KT 5SM -SHRA BR SCT015 OVC030
     FM310500 19011KT 6SM -SHRA BR SCT020 OVC035
     FM310900 11006KT P6SM VCSH SCT025 OVC050
     FM311700 21006KT P6SM VCSH SCT025 OVC050=

USA.gov is the U.S. government's official web portal to all federal, state and local government web resources and services.